Time;durP1;ratioP1;P1;durP2;ratioP2;P2;SDS_P1;SDS_P2;PMS_P1;PMS_P2;Temp;Humidity;BMP_temperature;BMP_pressure;BME280_temperature;BME280_humidity;BME280_pressure;Samples;Min_cycle;Max_cycle;Signal;HPM_P1;HPM_P2
2021/05/04 00:01:56;;;;;;;24.70;3.20;;;;;;;12.63;44.69;99871.97;5025180;28;20378;-74
2021/05/04 00:04:21;;;;;;;12.50;2.50;;;;;;;12.71;44.31;99874.84;5023005;28;20052;-73
2021/05/04 00:06:46;;;;;;;7.72;2.35;;;;;;;12.85;43.63;99881.72;5026228;28;20522;-73
2021/05/04 00:09:12;;;;;;;16.45;2.40;;;;;;;12.99;43.26;99854.44;5024928;28;20037;-74
2021/05/04 00:11:38;;;;;;;3.08;1.77;;;;;;;13.01;42.75;99857.00;5024759;28;20033;-73
2021/05/04 00:14:03;;;;;;;6.70;2.90;;;;;;;13.08;43.08;99834.78;5022639;28;20032;-74
2021/05/04 00:16:29;;;;;;;4.82;2.00;;;;;;;13.13;42.61;99831.69;5025797;28;20436;-74
2021/05/04 00:18:54;;;;;;;7.15;2.28;;;;;;;13.18;42.71;99818.66;5023706;28;20445;-73
2021/05/04 00:21:20;;;;;;;5.63;2.00;;;;;;;13.30;41.85;99812.19;5022838;28;20151;-75
2021/05/04 00:23:45;;;;;;;4.70;1.80;;;;;;;13.20;42.24;99808.63;5026880;28;20676;-74
2021/05/04 00:26:11;;;;;;;3.17;1.73;;;;;;;13.19;42.09;99798.81;5031920;28;20025;-74
2021/05/04 00:28:37;;;;;;;3.55;1.88;;;;;;;13.34;41.48;99798.28;5023689;28;20167;-74
2021/05/04 00:31:03;;;;;;;6.05;2.17;;;;;;;13.35;41.71;99797.28;5029562;28;20722;-74
2021/05/04 00:33:28;;;;;;;3.47;1.70;;;;;;;13.35;41.45;99783.81;5022274;28;20498;-74
2021/05/04 00:35:55;;;;;;;4.13;2.00;;;;;;;13.33;41.68;99763.41;5029702;28;20048;-74
2021/05/04 00:38:22;;;;;;;2.35;1.70;;;;;;;13.41;42.01;99766.22;5025411;28;20037;-74
2021/05/04 00:40:47;;;;;;;4.28;1.63;;;;;;;13.26;41.78;99746.09;5029433;28;20116;-75
2021/05/04 00:43:13;;;;;;;4.13;1.90;;;;;;;13.32;41.59;99745.53;5024936;28;20669;-73
2021/05/04 00:45:39;;;;;;;2.85;1.83;;;;;;;13.41;41.34;99738.41;5024905;28;20091;-73
2021/05/04 00:48:04;;;;;;;2.20;1.40;;;;;;;13.37;41.08;99732.47;5029783;28;20594;-74
2021/05/04 00:50:30;;;;;;;2.85;1.35;;;;;;;13.32;41.46;99734.75;5028116;28;20110;-74
2021/05/04 00:52:55;;;;;;;4.85;1.63;;;;;;;13.34;41.40;99724.66;5024852;28;20040;-74
2021/05/04 00:55:21;;;;;;;5.28;1.63;;;;;;;13.43;41.72;99718.44;5022363;28;20029;-74
2021/05/04 00:57:48;;;;;;;4.32;1.45;;;;;;;13.34;41.65;99711.19;5026938;28;20120;-74
2021/05/04 01:00:14;;;;;;;8.30;1.77;;;;;;;13.38;41.60;99712.63;5024443;28;20470;-75
2021/05/04 01:02:40;;;;;;;3.33;1.50;;;;;;;13.38;41.21;99718.00;5033155;28;20049;-74
2021/05/04 01:05:08;;;;;;;3.00;1.60;;;;;;;13.41;41.45;99706.94;5025212;28;20045;-74
2021/05/04 01:07:33;;;;;;;4.80;2.20;;;;;;;13.44;41.33;99717.44;5024525;28;20022;-73
2021/05/04 01:09:59;;;;;;;4.95;1.67;;;;;;;13.39;41.58;99690.06;5025611;28;20041;-74
2021/05/04 01:12:24;;;;;;;5.15;1.75;;;;;;;13.45;41.10;99696.72;5027751;28;20021;-74
2021/05/04 01:14:50;;;;;;;2.53;1.45;;;;;;;13.50;40.66;99694.47;5027076;28;20044;-74
2021/05/04 01:17:16;;;;;;;3.45;1.45;;;;;;;13.45;41.16;99689.50;5024723;28;20103;-73
2021/05/04 01:19:42;;;;;;;8.75;2.17;;;;;;;13.55;40.23;99676.84;5036039;28;20047;-74
2021/05/04 01:22:07;;;;;;;6.97;1.40;;;;;;;13.43;40.63;99674.44;5032833;28;20048;-74
2021/05/04 01:24:33;;;;;;;3.60;1.10;;;;;;;13.45;40.45;99656.31;5024300;28;20073;-74
2021/05/04 01:26:59;;;;;;;2.92;1.33;;;;;;;13.49;40.04;99663.09;5026497;28;20026;-72
2021/05/04 01:29:27;;;;;;;8.55;1.40;;;;;;;13.56;39.42;99638.13;5033613;28;20036;-73
2021/05/04 01:31:54;;;;;;;4.15;1.08;;;;;;;13.62;38.65;99656.44;5032759;28;20040;-74
2021/05/04 01:34:20;;;;;;;15.05;1.40;;;;;;;13.57;38.80;99649.75;5030593;28;20034;-74
2021/05/04 01:36:45;;;;;;;4.18;1.42;;;;;;;13.58;38.55;99648.75;5031005;28;20104;-75
2021/05/04 01:39:11;;;;;;;7.60;1.52;;;;;;;13.49;38.59;99666.66;5031537;28;20675;-74
2021/05/04 01:41:37;;;;;;;16.08;2.00;;;;;;;13.49;40.27;99666.66;5026806;28;20497;-72
2021/05/04 01:44:04;;;;;;;9.35;1.75;;;;;;;13.24;44.09;99657.28;5028171;28;20120;-74
2021/05/04 01:46:33;;;;;;;8.07;2.30;;;;;;;12.96;46.20;99647.31;5022607;28;20025;-74
2021/05/04 01:48:59;;;;;;;14.10;1.58;;;;;;;12.80;46.03;99655.91;5029254;28;20029;-71
2021/05/04 01:51:27;;;;;;;11.05;1.60;;;;;;;12.69;47.41;99650.66;5026034;28;21007;-73
2021/05/04 01:53:52;;;;;;;6.15;1.00;;;;;;;12.61;49.54;99655.88;5027549;28;20536;-73
2021/05/04 01:56:18;;;;;;;10.00;1.95;;;;;;;12.46;51.30;99659.94;5028600;28;20273;-74
2021/05/04 01:58:44;;;;;;;5.47;1.10;;;;;;;12.40;52.44;99657.81;5027525;28;20051;-74
2021/05/04 02:01:09;;;;;;;12.68;1.20;;;;;;;12.25;55.55;99677.97;5030839;28;20504;-74
2021/05/04 02:03:35;;;;;;;2.78;1.10;;;;;;;11.97;58.85;99653.47;5024767;28;20029;-75
2021/05/04 02:06:00;;;;;;;6.18;1.25;;;;;;;11.64;61.31;99659.91;5028008;28;20021;-74
2021/05/04 02:08:25;;;;;;;3.60;1.30;;;;;;;11.46;63.64;99628.38;5026833;28;20048;-73
2021/05/04 02:10:51;;;;;;;3.22;1.17;;;;;;;11.44;65.29;99639.25;5029279;28;20033;-74
2021/05/04 02:13:16;;;;;;;5.57;1.23;;;;;;;11.31;67.38;99639.44;5027145;28;20037;-73
2021/05/04 02:15:42;;;;;;;2.75;1.02;;;;;;;11.20;67.04;99634.13;5026713;28;20042;-73
2021/05/04 02:18:07;;;;;;;6.45;1.33;;;;;;;11.10;70.39;99625.16;5028170;28;20034;-74
2021/05/04 02:20:33;;;;;;;2.92;1.30;;;;;;;11.04;72.63;99622.97;5026474;28;20037;-74
2021/05/04 02:22:58;;;;;;;5.28;1.30;;;;;;;10.95;74.59;99611.16;5028029;28;20041;-74
2021/05/04 02:25:24;;;;;;;4.72;1.67;;;;;;;10.81;75.39;99611.44;5024945;28;20056;-75
2021/05/04 02:27:50;;;;;;;2.60;1.38;;;;;;;10.79;76.65;99604.50;5021107;28;20037;-74
2021/05/04 02:30:15;;;;;;;3.75;1.23;;;;;;;10.74;77.20;99596.81;5026099;28;20034;-74
2021/05/04 02:32:41;;;;;;;3.85;1.38;;;;;;;10.67;78.64;99586.75;5028256;28;20413;-74
2021/05/04 02:35:07;;;;;;;8.60;1.83;;;;;;;10.66;78.75;99569.78;5027862;28;20025;-74
2021/05/04 02:37:32;;;;;;;15.40;2.15;;;;;;;10.60;81.12;99562.25;5027845;28;20029;-74
2021/05/04 02:39:58;;;;;;;5.68;1.50;;;;;;;10.53;78.63;99550.31;5034069;28;20033;-75
2021/05/04 02:42:24;;;;;;;4.32;1.60;;;;;;;10.42;78.76;99544.97;5028125;28;20357;-74
2021/05/04 02:44:49;;;;;;;5.43;1.27;;;;;;;10.34;80.17;99540.25;5034573;28;20615;-74
2021/05/04 02:47:15;;;;;;;3.97;1.52;;;;;;;10.31;81.26;99551.19;5027636;28;20393;-74
2021/05/04 02:49:40;;;;;;;2.25;1.38;;;;;;;10.29;79.50;99542.47;5027294;28;20036;-74
2021/05/04 02:52:06;;;;;;;6.18;1.63;;;;;;;10.17;79.96;99538.09;5030267;28;20033;-74
2021/05/04 02:54:31;;;;;;;4.13;1.42;;;;;;;10.16;79.23;99541.72;5023965;28;20079;-74
2021/05/04 02:56:57;;;;;;;4.20;1.60;;;;;;;10.17;79.50;99539.91;5013707;28;20041;-75
2021/05/04 02:59:22;;;;;;;5.28;1.58;;;;;;;10.18;80.15;99538.94;5027867;28;20075;-74
2021/05/04 03:01:48;;;;;;;5.57;1.63;;;;;;;10.10;79.53;99536.84;5026451;28;20106;-75
2021/05/04 03:04:13;;;;;;;14.90;3.30;;;;;;;10.11;79.70;99527.84;5027122;28;20033;-74
2021/05/04 03:06:39;;;;;;;3.65;1.33;;;;;;;10.07;79.01;99529.91;5026494;28;20040;-74
2021/05/04 03:09:04;;;;;;;3.20;1.60;;;;;;;10.10;79.93;99524.28;5025537;28;20042;-74
2021/05/04 03:11:30;;;;;;;4.65;1.92;;;;;;;10.04;80.25;99518.59;5026298;28;20044;-74
2021/05/04 03:13:55;;;;;;;3.55;1.70;;;;;;;10.10;79.98;99512.72;5027317;28;20114;-73
2021/05/04 03:16:21;;;;;;;3.80;1.60;;;;;;;10.01;79.03;99526.84;5025704;28;20037;-74
2021/05/04 03:18:46;;;;;;;3.45;1.33;;;;;;;9.93;76.95;99514.09;5027160;28;20488;-73
2021/05/04 03:21:12;;;;;;;2.47;1.27;;;;;;;9.92;77.85;99530.28;5027639;28;20033;-74
2021/05/04 03:23:37;;;;;;;2.25;1.10;;;;;;;9.88;77.81;99527.00;5027825;28;20041;-75
2021/05/04 03:26:03;;;;;;;6.20;1.70;;;;;;;9.88;79.84;99520.78;5025993;28;20036;-74
2021/05/04 03:28:28;;;;;;;2.58;1.25;;;;;;;9.79;79.16;99516.16;5025652;28;20025;-74
2021/05/04 03:30:54;;;;;;;3.20;1.42;;;;;;;9.79;79.56;99505.44;5026158;28;20037;-74
2021/05/04 03:33:19;;;;;;;2.30;1.33;;;;;;;9.87;78.42;99513.75;5027730;28;20041;-74
2021/05/04 03:35:45;;;;;;;2.72;1.65;;;;;;;9.79;79.80;99511.66;5024238;28;20026;-74
2021/05/04 03:38:10;;;;;;;5.35;1.90;;;;;;;9.82;81.22;99510.56;5027374;28;20044;-75
2021/05/04 03:40:36;;;;;;;5.53;2.00;;;;;;;9.79;80.60;99505.44;5025123;28;20037;-75
2021/05/04 03:43:02;;;;;;;2.72;1.50;;;;;;;9.78;80.49;99488.53;5023934;28;20029;-74
2021/05/04 03:45:28;;;;;;;4.07;1.48;;;;;;;9.71;79.86;99488.16;5022462;28;20029;-74
2021/05/04 03:47:53;;;;;;;8.00;1.70;;;;;;;9.72;79.92;99473.78;5026663;28;20060;-75
2021/05/04 03:50:22;;;;;;;5.25;1.60;;;;;;;9.65;79.59;99467.22;5040390;28;20124;-75
2021/05/04 03:52:49;;;;;;;5.28;2.90;;;;;;;9.68;81.46;99472.34;5027342;28;20477;-75
2021/05/04 03:55:14;;;;;;;2.65;1.50;;;;;;;9.60;80.61;99469.41;5022740;28;20104;-74
2021/05/04 03:57:40;;;;;;;4.45;1.70;;;;;;;9.69;81.15;99463.31;5026018;28;20466;-75
2021/05/04 04:00:08;;;;;;;3.83;1.45;;;;;;;9.66;80.32;99474.28;5026512;28;20191;-75
2021/05/04 04:02:33;;;;;;;2.85;1.50;;;;;;;9.62;80.32;99466.63;5027053;28;20055;-75
2021/05/04 04:04:59;;;;;;;2.38;1.58;;;;;;;9.72;81.74;99459.53;5020956;28;20478;-74
2021/05/04 04:07:24;;;;;;;4.35;1.60;;;;;;;9.71;80.77;99450.66;5026738;28;20021;-75
2021/05/04 04:09:50;;;;;;;4.40;1.60;;;;;;;9.75;80.99;99483.41;5024929;28;20119;-74
2021/05/04 04:12:15;;;;;;;3.67;1.42;;;;;;;9.69;80.41;99433.84;5027270;28;20782;-73
2021/05/04 04:14:41;;;;;;;2.95;1.42;;;;;;;9.75;81.97;99451.28;5024957;28;20034;-74
2021/05/04 04:17:06;;;;;;;5.47;1.40;;;;;;;9.73;81.96;99448.72;5026712;28;20039;-74
2021/05/04 04:19:32;;;;;;;3.95;1.60;;;;;;;9.70;80.70;99432.88;5027038;28;20044;-74
2021/05/04 04:21:57;;;;;;;3.47;1.65;;;;;;;9.77;80.65;99425.19;5026198;28;20453;-74
2021/05/04 04:24:22;;;;;;;2.80;1.50;;;;;;;9.71;80.99;99445.28;5026291;28;20061;-75
2021/05/04 04:26:48;;;;;;;3.08;1.80;;;;;;;9.73;80.38;99432.63;5025560;28;20116;-74
2021/05/04 04:29:13;;;;;;;3.42;1.73;;;;;;;9.79;81.22;99414.34;5023626;28;20120;-74
2021/05/04 04:31:41;;;;;;;2.30;1.52;;;;;;;9.76;80.50;99407.41;5026912;28;20037;-74
2021/05/04 04:34:07;;;;;;;2.83;1.60;;;;;;;9.80;80.94;99408.00;5025158;28;20083;-74
2021/05/04 04:36:33;;;;;;;2.67;1.60;;;;;;;9.88;80.61;99410.91;5025795;28;20116;-75
2021/05/04 04:38:58;;;;;;;2.58;1.65;;;;;;;9.89;80.77;99405.41;5024190;28;20576;-74
2021/05/04 04:41:24;;;;;;;3.20;1.20;;;;;;;9.87;79.94;99401.19;5026428;28;20032;-73
2021/05/04 04:43:49;;;;;;;2.65;1.70;;;;;;;9.87;80.44;99401.19;5025827;28;20040;-76
2021/05/04 04:46:14;;;;;;;3.78;1.90;;;;;;;9.86;80.24;99396.78;5021807;28;20394;-73
2021/05/04 04:48:40;;;;;;;5.47;1.95;;;;;;;9.77;80.36;99395.72;5023574;28;20450;-73
2021/05/04 04:51:05;;;;;;;5.95;1.42;;;;;;;9.88;81.56;99402.84;5023122;28;20033;-74
2021/05/04 04:53:31;;;;;;;6.50;1.88;;;;;;;9.92;79.38;99388.25;5028890;28;20033;-73
2021/05/04 04:55:56;;;;;;;2.50;1.73;;;;;;;9.86;80.21;99378.03;5030610;28;20486;-73
2021/05/04 04:58:21;;;;;;;3.72;1.35;;;;;;;9.93;79.58;99376.56;5030346;28;20026;-74
2021/05/04 05:00:48;;;;;;;5.30;1.35;;;;;;;9.91;80.86;99386.53;5026904;28;20458;-74
2021/05/04 05:03:13;;;;;;;4.55;1.27;;;;;;;9.99;80.79;99379.56;5026878;28;20104;-73
2021/05/04 05:05:39;;;;;;;8.80;1.70;;;;;;;9.97;79.70;99360.06;5028886;28;20037;-74
2021/05/04 05:08:04;;;;;;;2.20;1.30;;;;;;;9.98;80.93;99364.47;5030403;28;20027;-73
2021/05/04 05:10:30;;;;;;;2.42;1.27;;;;;;;9.94;80.75;99378.22;5026489;28;21665;-74
2021/05/04 05:12:55;;;;;;;1.63;1.27;;;;;;;9.97;80.69;99364.59;5029999;28;20061;-74
2021/05/04 05:15:21;;;;;;;6.75;1.45;;;;;;;9.94;81.72;99364.81;5027926;28;20428;-75
2021/05/04 05:17:46;;;;;;;3.45;1.45;;;;;;;9.93;82.16;99373.88;5022800;28;20412;-75
2021/05/04 05:20:12;;;;;;;6.68;1.88;;;;;;;9.97;82.50;99369.94;5026100;28;20461;-75
2021/05/04 05:22:38;;;;;;;5.05;1.65;;;;;;;9.93;82.71;99363.16;5022607;28;20565;-74
2021/05/04 05:25:04;;;;;;;6.30;1.65;;;;;;;9.95;82.52;99363.84;5028350;28;20136;-74
2021/05/04 05:27:31;;;;;;;5.82;1.65;;;;;;;9.97;82.99;99375.31;5027634;28;20068;-74
2021/05/04 05:29:57;;;;;;;8.30;1.80;;;;;;;9.98;82.13;99345.69;5025168;28;20041;-74
2021/05/04 05:32:23;;;;;;;3.15;1.45;;;;;;;10.00;82.10;99353.59;5026438;28;20037;-74
2021/05/04 05:34:48;;;;;;;6.03;1.98;;;;;;;10.08;81.13;99356.50;5026707;28;20059;-75
2021/05/04 05:37:13;;;;;;;2.30;1.55;;;;;;;10.03;82.10;99358.72;5027194;28;20063;-74
2021/05/04 05:39:42;;;;;;;3.50;1.60;;;;;;;10.03;82.27;99354.22;5030242;28;20041;-74
2021/05/04 05:42:13;;;;;;;4.47;1.70;;;;;;;10.02;81.85;99340.91;5028800;28;20039;-75
2021/05/04 05:44:38;;;;;;;6.32;1.98;;;;;;;10.11;81.88;99345.53;5028760;28;20116;-74
2021/05/04 05:47:04;;;;;;;4.18;1.75;;;;;;;10.12;81.68;99352.59;5034884;28;20108;-75
2021/05/04 05:49:31;;;;;;;3.42;1.70;;;;;;;10.16;82.70;99343.31;5037202;28;20688;-73
2021/05/04 05:51:56;;;;;;;6.40;1.50;;;;;;;10.09;81.48;99352.84;5031002;28;20041;-74
2021/05/04 05:54:22;;;;;;;1.83;1.45;;;;;;;10.12;81.45;99336.50;5033804;28;20017;-74
2021/05/04 05:56:48;;;;;;;6.57;1.65;;;;;;;10.12;82.29;99336.50;5032936;28;20113;-73
2021/05/04 05:59:13;;;;;;;5.40;1.50;;;;;;;10.11;82.05;99340.16;5030716;28;20048;-74
2021/05/04 06:01:38;;;;;;;5.25;2.13;;;;;;;10.20;82.19;99346.59;5038304;22;20037;-83
2021/05/04 06:04:04;;;;;;;8.13;1.60;;;;;;;10.29;82.02;99338.63;5030942;28;20045;-82
2021/05/04 06:06:29;;;;;;;10.63;1.58;;;;;;;10.31;81.25;99342.03;5030762;28;20037;-82
2021/05/04 06:08:55;;;;;;;9.00;1.80;;;;;;;10.33;81.25;99344.56;5031283;28;20437;-82
2021/05/04 06:11:20;;;;;;;4.43;1.63;;;;;;;10.49;80.51;99329.72;5030136;28;20037;-83
2021/05/04 06:13:46;;;;;;;3.15;1.60;;;;;;;10.62;79.88;99323.28;5024650;28;20041;-83
2021/05/04 06:16:11;;;;;;;4.22;1.70;;;;;;;11.02;79.29;99324.22;5026987;28;20087;-79
2021/05/04 06:18:37;;;;;;;3.58;1.42;;;;;;;11.03;78.28;99339.34;5031961;28;20079;-82
2021/05/04 06:21:03;;;;;;;3.33;1.30;;;;;;;10.91;78.86;99330.53;5011663;28;20390;-82
2021/05/04 06:23:28;;;;;;;7.45;1.50;;;;;;;10.82;79.35;99314.38;5025956;28;20642;-83
2021/05/04 06:25:53;;;;;;;3.22;1.48;;;;;;;10.70;80.30;99331.53;5034818;28;20033;-83
2021/05/04 06:28:19;;;;;;;4.05;1.80;;;;;;;10.66;82.22;99330.13;5010246;28;20668;-82
2021/05/04 06:30:45;;;;;;;1.88;1.30;;;;;;;10.61;82.15;99353.81;5023989;28;20037;-80
2021/05/04 06:33:15;;;;;;;4.55;1.38;;;;;;;10.58;82.88;99337.97;5028504;28;20033;-82
2021/05/04 06:35:42;;;;;;;4.43;1.70;;;;;;;10.57;84.58;99338.94;5028697;28;20025;-81
2021/05/04 06:38:12;;;;;;;2.95;1.63;;;;;;;10.49;85.67;99343.13;5024628;28;20549;-81
2021/05/04 06:40:39;;;;;;;2.35;1.55;;;;;;;10.40;86.03;99335.03;5021689;28;20047;-84
2021/05/04 06:43:04;;;;;;;7.63;1.80;;;;;;;10.44;86.14;99341.81;5026311;28;20044;-82
2021/05/04 06:45:30;;;;;;;3.15;1.55;;;;;;;10.39;88.62;99326.13;5016455;28;20029;-80
2021/05/04 06:47:56;;;;;;;2.42;1.70;;;;;;;10.38;90.78;99334.31;5006165;28;20115;-80
2021/05/04 06:50:22;;;;;;;3.13;1.65;;;;;;;10.32;92.15;99333.00;5025081;28;20033;-79
2021/05/04 06:52:47;;;;;;;6.20;2.70;;;;;;;10.22;93.32;99320.50;5029951;28;20046;-81
2021/05/04 06:55:13;;;;;;;6.60;2.25;;;;;;;10.24;94.24;99316.72;5027392;28;20037;-81
2021/05/04 06:57:39;;;;;;;3.47;1.60;;;;;;;10.25;93.19;99307.69;5027952;28;20512;-80
2021/05/04 07:00:06;;;;;;;4.63;1.60;;;;;;;10.15;90.89;99318.31;5022388;28;20793;-80
2021/05/04 07:02:31;;;;;;;5.05;1.52;;;;;;;10.18;91.69;99292.28;5028520;28;20044;-80
2021/05/04 07:04:57;;;;;;;2.60;1.83;;;;;;;10.21;90.89;99308.94;5029041;28;20045;-81
2021/05/04 07:07:22;;;;;;;3.85;1.58;;;;;;;10.32;90.86;99298.13;5028135;28;20025;-81
2021/05/04 07:09:47;;;;;;;6.75;1.67;;;;;;;10.32;91.03;99310.69;5008323;28;20105;-80
2021/05/04 07:12:13;;;;;;;4.05;1.70;;;;;;;10.18;93.41;99309.22;5013708;28;20041;-80
2021/05/04 07:14:39;;;;;;;3.30;2.10;;;;;;;10.22;94.68;99307.09;5026776;28;20033;-79
2021/05/04 07:17:06;;;;;;;2.42;1.70;;;;;;;10.08;95.62;99308.25;5027113;28;20029;-80
2021/05/04 07:19:32;;;;;;;4.88;1.77;;;;;;;10.06;96.82;99294.13;5028880;28;20040;-83
2021/05/04 07:21:58;;;;;;;3.78;2.05;;;;;;;10.14;97.18;99299.69;5011495;28;20112;-79
2021/05/04 07:24:23;;;;;;;5.78;2.10;;;;;;;10.06;99.69;99308.34;5009309;28;20247;-80
2021/05/04 07:26:50;;;;;;;3.13;1.70;;;;;;;10.10;99.62;99311.66;5021355;28;20405;-81
2021/05/04 07:29:15;;;;;;;2.80;1.63;;;;;;;10.02;100.00;99298.03;5009683;28;20034;-80
2021/05/04 07:31:42;;;;;;;3.33;1.80;;;;;;;10.12;100.00;99298.97;5028812;28;20060;-82
2021/05/04 07:34:07;;;;;;;4.13;2.03;;;;;;;10.07;100.00;99295.81;5025848;28;20037;-80
2021/05/04 07:36:33;;;;;;;4.72;2.33;;;;;;;10.09;100.00;99291.19;5011245;28;20516;-81
2021/05/04 07:38:59;;;;;;;4.00;1.92;;;;;;;10.21;100.00;99287.47;5011012;28;20037;-80
2021/05/04 07:41:24;;;;;;;5.85;2.33;;;;;;;10.19;100.00;99273.34;5029395;28;20526;-81
2021/05/04 07:43:51;;;;;;;5.30;2.58;;;;;;;10.24;100.00;99286.38;5029502;28;20468;-80
2021/05/04 07:46:17;;;;;;;8.40;2.70;;;;;;;10.18;100.00;99286.91;5023731;28;20087;-83
2021/05/04 07:48:42;;;;;;;3.85;2.13;;;;;;;10.25;100.00;99288.91;5023504;28;20041;-80
2021/05/04 07:51:08;;;;;;;4.32;2.30;;;;;;;10.25;100.00;99294.28;5005184;28;20037;-79
2021/05/04 07:53:34;;;;;;;4.90;1.83;;;;;;;10.25;100.00;99290.75;5026360;28;20048;-81
2021/05/04 07:55:59;;;;;;;5.25;1.70;;;;;;;10.23;100.00;99288.22;5012443;28;20038;-80
2021/05/04 07:58:25;;;;;;;4.85;1.95;;;;;;;10.19;100.00;99283.22;5027930;28;20104;-81
2021/05/04 08:00:50;;;;;;;7.82;2.47;;;;;;;10.29;100.00;99279.66;5023710;28;20037;-81
2021/05/04 08:03:16;;;;;;;6.03;1.77;;;;;;;10.32;100.00;99278.50;5002540;28;20059;-81
2021/05/04 08:05:42;;;;;;;3.50;1.75;;;;;;;10.26;100.00;99279.88;5001966;28;20115;-83
2021/05/04 08:08:11;;;;;;;4.53;1.77;;;;;;;10.41;100.00;99289.31;5028060;28;20034;-81
2021/05/04 08:10:37;;;;;;;5.72;1.90;;;;;;;10.54;100.00;99264.97;5008906;28;20045;-81
2021/05/04 08:13:03;;;;;;;5.18;1.90;;;;;;;10.75;99.80;99256.84;5013805;28;20039;-81
2021/05/04 08:15:29;;;;;;;4.30;1.98;;;;;;;10.89;98.86;99256.47;5029489;28;20530;-82
2021/05/04 08:18:07;;;;;;;2.40;1.38;;;;;;;11.03;96.88;99268.69;5025847;28;20102;-81
2021/05/04 08:20:34;;;;;;;3.95;1.88;;;;;;;11.23;94.97;99255.13;5003592;28;20029;-83
2021/05/04 08:23:03;;;;;;;4.25;1.50;;;;;;;11.39;94.56;99253.78;5008812;28;20044;-81
2021/05/04 08:25:28;;;;;;;4.65;1.95;;;;;;;11.50;93.75;99229.44;5015526;28;20058;-81
2021/05/04 08:27:54;;;;;;;5.22;1.90;;;;;;;11.59;93.69;99261.72;5022269;28;20490;-82
2021/05/04 08:30:21;;;;;;;5.18;2.35;;;;;;;11.55;90.78;99252.22;5029034;28;20057;-81
2021/05/04 08:32:49;;;;;;;5.47;2.10;;;;;;;11.56;94.43;99259.28;5030791;28;20072;-82
2021/05/04 08:35:14;;;;;;;4.20;1.92;;;;;;;11.45;94.68;99251.38;5023295;28;20116;-82
2021/05/04 08:37:41;;;;;;;2.38;1.20;;;;;;;11.43;93.51;99260.56;5021954;28;20389;-81
2021/05/04 08:40:07;;;;;;;6.25;2.13;;;;;;;11.37;93.78;99251.22;5019219;28;20069;-81
2021/05/04 08:42:32;;;;;;;7.00;1.73;;;;;;;11.45;93.24;99245.16;5012456;28;20040;-80
2021/05/04 08:45:01;;;;;;;7.35;1.80;;;;;;;11.41;94.46;99254.50;5024030;28;20037;-79
2021/05/04 08:47:27;;;;;;;8.95;1.98;;;;;;;11.30;95.43;99255.44;5025362;28;20440;-80
2021/05/04 08:49:53;;;;;;;4.68;2.63;;;;;;;11.23;96.91;99257.81;5023595;28;20037;-79
2021/05/04 08:52:18;;;;;;;5.93;2.80;;;;;;;11.22;98.01;99263.34;5019360;28;20036;-81
2021/05/04 08:54:44;;;;;;;12.40;4.13;;;;;;;11.15;100.00;99268.44;5026920;28;20056;-84
2021/05/04 08:57:09;;;;;;;13.68;5.85;;;;;;;11.09;100.00;99268.97;5024431;28;20353;-81
2021/05/04 08:59:35;;;;;;;25.45;10.43;;;;;;;11.05;100.00;99267.53;5011294;28;20508;-81
2021/05/04 09:02:00;;;;;;;34.15;11.93;;;;;;;11.03;100.00;99274.03;5025878;28;20171;-81
2021/05/04 09:04:52;;;;;;;88.45;27.92;;;;;;;11.08;100.00;99264.59;5021335;28;20059;-82
2021/05/04 09:07:20;;;;;;;50.92;18.42;;;;;;;10.96;100.00;99289.84;5022138;28;20057;-81
2021/05/04 09:12:54;;;;;;;21.10;8.15;;;;;;;10.67;100.00;99267.41;5026082;28;20075;-81
2021/05/04 09:15:43;;;;;;;4.97;1.70;;;;;;;10.59;100.00;99248.44;4999712;28;20064;-82
2021/05/04 09:18:33;;;;;;;6.63;2.55;;;;;;;10.74;100.00;99234.53;5028660;28;20076;-80
2021/05/04 09:21:03;;;;;;;8.77;2.50;;;;;;;11.70;100.00;99258.88;5010421;28;20151;-80
2021/05/04 09:23:28;;;;;;;6.22;1.70;;;;;;;12.35;100.00;99240.28;5015493;28;20237;-82
2021/05/04 09:25:55;;;;;;;12.40;2.30;;;;;;;12.69;100.00;99230.69;5021321;28;20123;-82
2021/05/04 09:28:20;;;;;;;9.00;2.17;;;;;;;13.33;99.69;99240.59;5002632;28;20067;-82
2021/05/04 09:30:56;;;;;;;4.05;1.52;;;;;;;13.46;92.33;99234.78;5022190;28;20276;-82
2021/05/04 09:33:22;;;;;;;7.63;1.60;;;;;;;13.60;90.71;99254.00;5005534;28;20072;-84
2021/05/04 09:35:48;;;;;;;9.48;1.48;;;;;;;13.26;92.69;99245.72;5025280;28;20123;-81
2021/05/04 09:38:16;;;;;;;9.25;1.30;;;;;;;13.11;90.60;99233.72;5014349;28;20112;-85
2021/05/04 09:40:43;;;;;;;8.95;1.55;;;;;;;13.01;90.64;99224.00;5023056;28;20029;-82
2021/05/04 09:43:16;;;;;;;6.43;1.10;;;;;;;12.67;86.56;99229.97;5011436;28;20037;-85
2021/05/04 09:45:44;;;;;;;11.80;1.98;;;;;;;12.55;89.28;99231.16;5018950;28;20128;-81
2021/05/04 09:48:16;;;;;;;12.45;1.88;;;;;;;12.80;89.46;99226.94;5023665;28;20079;-83
2021/05/04 09:51:00;;;;;;;6.80;1.53;;;;;;;12.98;84.71;99226.00;5022646;28;20405;-82
2021/05/04 09:56:13;;;;;;;9.55;2.42;;;;;;;13.04;82.15;99231.78;5041461;28;20033;-82
2021/05/04 09:58:49;;;;;;;5.50;1.33;;;;;;;13.15;79.76;99223.50;5029403;28;20556;-82
2021/05/04 10:01:20;;;;;;;8.90;1.77;;;;;;;13.53;78.16;99225.09;5025556;28;20044;-83
2021/05/04 10:03:47;;;;;;;7.30;1.58;;;;;;;13.75;75.03;99221.97;5022625;28;20333;-82
2021/05/04 10:06:15;;;;;;;11.10;1.15;;;;;;;14.20;73.58;99202.91;5025891;28;20076;-82
2021/05/04 10:08:41;;;;;;;6.43;1.60;;;;;;;14.45;73.47;99212.03;5014337;28;20040;-84
2021/05/04 10:11:09;;;;;;;9.45;1.55;;;;;;;14.90;72.34;99252.28;5028867;28;20064;-84
2021/05/04 10:13:36;;;;;;;14.10;1.90;;;;;;;14.86;70.64;99221.19;5005964;28;20311;-81
2021/05/04 10:16:04;;;;;;;8.05;1.42;;;;;;;14.81;71.13;99220.84;5030610;28;20041;-82
2021/05/04 10:18:30;;;;;;;12.95;2.17;;;;;;;14.72;72.95;99238.00;5022684;28;20046;-83
2021/05/04 10:20:58;;;;;;;13.43;2.60;;;;;;;14.44;71.89;99211.19;5017346;28;20041;-84
2021/05/04 10:23:25;;;;;;;9.82;1.83;;;;;;;14.25;72.73;99224.03;5007259;28;20033;-84
2021/05/04 10:26:15;;;;;;;8.75;1.48;;;;;;;13.78;74.97;99245.91;5005481;28;20045;-84
2021/05/04 10:28:43;;;;;;;11.68;2.10;;;;;;;13.36;74.47;99246.50;5023171;28;21555;-84
2021/05/04 10:31:14;;;;;;;16.23;2.38;;;;;;;13.50;75.40;99263.16;5023903;28;20029;-83
2021/05/04 10:33:40;;;;;;;13.38;2.03;;;;;;;13.81;74.90;99279.81;5021777;28;20098;-81
2021/05/04 10:36:32;;;;;;;7.05;2.00;;;;;;;13.75;68.20;99271.34;5027337;28;20026;-83
2021/05/04 10:38:58;;;;;;;11.15;1.63;;;;;;;13.91;67.57;99262.53;5040233;28;20116;-84
2021/05/04 10:41:24;;;;;;;13.15;2.13;;;;;;;13.92;65.71;99274.19;5026681;28;20120;-84
2021/05/04 10:44:08;;;;;;;11.05;2.17;;;;;;;14.03;64.84;99280.19;5021530;28;20465;-84
2021/05/04 10:46:42;;;;;;;15.15;2.53;;;;;;;13.95;62.80;99287.38;5008266;28;20087;-82
2021/05/04 10:49:09;;;;;;;17.23;2.00;;;;;;;13.79;64.29;99293.44;5010469;28;20025;-81
2021/05/04 10:51:50;;;;;;;14.88;1.73;;;;;;;14.15;65.08;99291.56;5022946;28;20037;-85
2021/05/04 10:54:18;;;;;;;11.00;2.17;;;;;;;14.61;63.25;99281.50;5022758;28;20482;-86
2021/05/04 10:56:45;;;;;;;19.55;2.38;;;;;;;14.78;62.14;99300.34;5018930;28;20058;-88
2021/05/04 10:59:32;;;;;;;11.80;1.42;;;;;;;14.48;60.45;99277.38;5018497;28;20453;-85
2021/05/04 11:02:10;;;;;;;13.38;1.83;;;;;;;14.33;60.16;99305.88;4999820;28;20041;-80
2021/05/04 11:04:43;;;;;;;9.52;1.58;;;;;;;14.79;60.37;99287.69;5024957;28;20118;-85
2021/05/04 11:07:09;;;;;;;10.93;2.13;;;;;;;14.94;59.50;99299.56;5006428;28;20087;-83
2021/05/04 11:09:40;;;;;;;11.88;2.08;;;;;;;14.84;58.06;99315.06;5005811;28;20311;-81
2021/05/04 11:12:08;;;;;;;19.98;2.58;;;;;;;15.06;58.26;99309.09;5027009;28;20361;-85
2021/05/04 11:14:36;;;;;;;7.60;1.58;;;;;;;15.19;57.09;99298.66;5003933;28;20037;-82
2021/05/04 11:17:10;;;;;;;10.98;1.58;;;;;;;15.54;56.01;99324.72;5027113;28;20116;-83
2021/05/04 11:19:40;;;;;;;7.55;1.58;;;;;;;15.48;55.14;99303.69;5008311;28;20102;-82
2021/05/04 11:22:10;;;;;;;8.73;1.48;;;;;;;15.73;55.35;99310.06;5025252;28;20033;-84
2021/05/04 11:24:44;;;;;;;17.38;3.45;;;;;;;15.48;54.08;99335.31;5024917;28;20631;-82
2021/05/04 11:27:09;;;;;;;11.02;1.35;;;;;;;15.25;51.90;99330.47;5020974;28;20045;-81
2021/05/04 11:29:36;;;;;;;9.25;1.40;;;;;;;14.89;52.89;99307.31;5023104;28;20037;-80
2021/05/04 11:32:09;;;;;;;9.10;1.65;;;;;;;14.67;54.04;99324.06;5008833;28;20033;-81
2021/05/04 11:34:38;;;;;;;11.70;1.27;;;;;;;14.48;54.36;99320.56;5018812;28;20033;-81
2021/05/04 11:37:11;;;;;;;17.00;2.28;;;;;;;14.48;53.67;99336.75;5020725;28;20091;-84